Time;durP1;ratioP1;P1;durP2;ratioP2;P2;SDS_P1;SDS_P2;PMS_P1;PMS_P2;Temp;Humidity;BMP_temperature;BMP_pressure;BME280_temperature;BME280_humidity;BME280_pressure;Samples;Min_cycle;Max_cycle;Signal;HPM_P1;HPM_P2
2022/04/13 00:02:19;;;;;;;7.25;4.72;;;;;;;15.08;52.91;98767.06;5180878;28;20065;-83
2022/04/13 00:05:10;;;;;;;7.22;4.60;;;;;;;15.13;51.84;98770.00;5212388;28;20054;-84
2022/04/13 00:08:05;;;;;;;7.75;5.15;;;;;;;15.19;52.15;98753.28;5208229;28;20053;-83
2022/04/13 00:10:56;;;;;;;8.82;4.78;;;;;;;14.88;52.44;98746.16;5208068;28;20496;-82
2022/04/13 00:13:46;;;;;;;7.53;4.53;;;;;;;14.81;52.49;98745.22;5207492;28;20492;-82
2022/04/13 00:16:37;;;;;;;8.95;5.07;;;;;;;14.65;52.52;98723.97;5193955;28;20056;-82
2022/04/13 00:19:27;;;;;;;10.27;4.75;;;;;;;14.63;52.53;98753.47;5206989;28;20064;-83
2022/04/13 00:22:17;;;;;;;7.70;4.72;;;;;;;14.88;51.87;98729.31;5207658;28;20479;-83
2022/04/13 00:25:07;;;;;;;5.90;4.50;;;;;;;15.33;51.66;98760.50;5207342;28;20485;-83
2022/04/13 00:27:58;;;;;;;10.18;4.97;;;;;;;15.15;51.15;98747.47;5207257;28;20064;-83
2022/04/13 00:30:48;;;;;;;7.05;4.80;;;;;;;15.05;52.29;98757.56;5207859;28;20656;-83
2022/04/13 00:33:39;;;;;;;8.32;4.88;;;;;;;14.59;55.58;98767.34;5207573;28;20060;-83
2022/04/13 00:36:29;;;;;;;10.13;5.57;;;;;;;14.26;57.44;98762.97;5207389;28;20132;-83
2022/04/13 00:39:19;;;;;;;10.60;5.85;;;;;;;14.28;56.74;98746.81;5207926;28;20075;-83
2022/04/13 00:42:09;;;;;;;11.68;5.68;;;;;;;14.32;56.91;98764.13;5195670;28;20565;-83
2022/04/13 00:44:59;;;;;;;8.35;5.35;;;;;;;14.11;56.36;98708.72;5210238;28;20076;-83
2022/04/13 00:47:50;;;;;;;9.65;5.53;;;;;;;14.28;55.50;98744.13;5208982;28;20136;-83
2022/04/13 00:50:41;;;;;;;10.10;6.00;;;;;;;13.99;55.90;98750.91;5208017;28;20053;-83
2022/04/13 00:53:36;;;;;;;8.15;5.57;;;;;;;14.04;55.88;98745.06;5208056;28;20064;-83
2022/04/13 00:56:29;;;;;;;9.10;4.95;;;;;;;14.09;56.76;98746.19;5207498;28;20103;-83
2022/04/13 00:59:20;;;;;;;9.13;4.85;;;;;;;13.44;59.63;98756.16;5206211;28;20132;-83
2022/04/13 01:02:12;;;;;;;7.40;4.65;;;;;;;13.73;58.94;98771.63;5194322;28;20113;-83
2022/04/13 01:05:05;;;;;;;7.15;5.03;;;;;;;13.75;59.07;98770.47;5194589;28;20510;-83
2022/04/13 01:07:56;;;;;;;8.10;4.88;;;;;;;13.62;59.40;98781.63;5208240;28;20060;-83
2022/04/13 01:10:48;;;;;;;9.45;5.03;;;;;;;13.36;59.13;98754.34;5208583;28;20427;-83
2022/04/13 01:13:39;;;;;;;7.05;4.13;;;;;;;13.10;60.33;98773.13;5194138;28;20109;-83
2022/04/13 01:16:30;;;;;;;8.75;4.72;;;;;;;12.56;61.69;98756.75;5207877;28;20760;-84
2022/04/13 01:19:20;;;;;;;10.90;4.78;;;;;;;13.04;60.50;98800.38;5209114;28;20061;-82
2022/04/13 01:22:17;;;;;;;8.48;5.18;;;;;;;13.15;59.84;98806.25;5208675;28;20045;-84
2022/04/13 01:25:08;;;;;;;9.07;5.13;;;;;;;13.11;60.29;98788.09;5209066;28;20723;-82
2022/04/13 01:27:58;;;;;;;8.20;4.68;;;;;;;13.15;60.08;98800.91;5188098;28;20057;-81
2022/04/13 01:30:49;;;;;;;8.23;4.35;;;;;;;13.23;59.34;98796.59;5193951;28;20059;-82
2022/04/13 01:33:40;;;;;;;6.68;4.30;;;;;;;12.98;59.59;98793.91;5209660;28;20490;-82
2022/04/13 01:36:33;;;;;;;7.85;4.90;;;;;;;12.73;59.59;98789.53;5210416;28;20088;-83
2022/04/13 01:39:23;;;;;;;7.35;4.93;;;;;;;12.78;60.07;98788.06;5206472;28;20108;-84
2022/04/13 01:42:14;;;;;;;8.50;4.70;;;;;;;12.76;59.77;98811.31;5210629;28;20050;-83
2022/04/13 01:45:08;;;;;;;11.23;4.95;;;;;;;12.68;59.64;98782.88;5205347;28;20056;-84
2022/04/13 01:47:58;;;;;;;8.23;4.70;;;;;;;12.86;58.97;98804.03;5209792;28;20053;-84
2022/04/13 01:50:49;;;;;;;7.03;4.50;;;;;;;13.10;57.45;98807.72;5207433;28;20057;-84
2022/04/13 01:53:40;;;;;;;6.90;4.47;;;;;;;12.61;58.70;98791.66;5214438;28;20058;-83
2022/04/13 01:56:31;;;;;;;7.30;4.10;;;;;;;12.63;58.37;98809.13;5214555;28;20073;-83
2022/04/13 01:59:21;;;;;;;5.78;3.92;;;;;;;12.54;58.98;98802.09;5215665;28;20276;-83
2022/04/13 02:02:11;;;;;;;9.15;4.63;;;;;;;12.58;58.56;98803.47;5192295;28;20143;-83
2022/04/13 02:05:02;;;;;;;5.07;4.20;;;;;;;12.44;58.78;98817.34;5209049;28;20057;-83
2022/04/13 02:07:52;;;;;;;5.70;3.83;;;;;;;12.74;58.69;98820.44;5212441;28;20115;-83
2022/04/13 02:10:42;;;;;;;5.50;3.95;;;;;;;12.54;58.14;98801.28;5208879;28;20103;-83
2022/04/13 02:13:32;;;;;;;8.68;4.25;;;;;;;12.20;59.24;98794.16;5214494;28;20068;-83
2022/04/13 02:16:23;;;;;;;7.13;4.20;;;;;;;12.08;58.84;98806.03;5212782;28;20052;-83
2022/04/13 02:19:13;;;;;;;8.70;3.90;;;;;;;11.99;59.62;98815.81;5214122;28;20057;-83
2022/04/13 02:22:04;;;;;;;6.00;3.95;;;;;;;11.89;59.73;98804.47;5210116;28;20128;-82
2022/04/13 02:24:54;;;;;;;8.88;4.90;;;;;;;11.81;60.85;98809.69;5214199;28;20049;-83
2022/04/13 02:27:44;;;;;;;14.15;5.30;;;;;;;11.95;60.31;98817.94;5197932;28;20136;-83
2022/04/13 02:30:34;;;;;;;13.93;5.82;;;;;;;11.96;60.66;98835.56;5195006;28;20060;-84
2022/04/13 02:33:25;;;;;;;14.30;6.10;;;;;;;12.13;60.49;98831.16;5197924;28;20084;-83
2022/04/13 02:36:15;;;;;;;15.63;6.72;;;;;;;11.76;60.82;98813.63;5208475;28;20171;-83
2022/04/13 02:39:05;;;;;;;14.25;6.78;;;;;;;11.64;61.02;98825.50;5210202;28;20508;-83
2022/04/13 02:41:55;;;;;;;27.45;9.10;;;;;;;11.60;61.65;98818.00;5212025;28;20092;-83
2022/04/13 02:44:46;;;;;;;15.52;6.88;;;;;;;11.64;61.61;98837.94;5211060;28;20075;-83
2022/04/13 02:47:36;;;;;;;24.40;7.80;;;;;;;11.36;62.39;98810.69;5206279;28;20076;-83
2022/04/13 02:50:26;;;;;;;19.38;6.60;;;;;;;11.76;61.58;98829.56;5210821;28;20509;-83
2022/04/13 02:53:17;;;;;;;16.48;6.93;;;;;;;11.56;61.80;98819.31;5211812;28;20095;-83
2022/04/13 02:56:08;;;;;;;17.35;7.45;;;;;;;11.47;61.83;98821.88;5211228;28;20115;-83
2022/04/13 02:58:58;;;;;;;20.27;7.07;;;;;;;11.32;61.50;98830.53;5205522;28;20056;-83
2022/04/13 03:01:49;;;;;;;18.23;7.22;;;;;;;11.29;62.75;98829.88;5210519;28;20484;-83
2022/04/13 03:04:46;;;;;;;15.40;6.93;;;;;;;11.32;62.36;98825.22;5211760;28;20130;-83
2022/04/13 03:07:37;;;;;;;17.88;7.22;;;;;;;11.19;62.23;98813.19;5210980;28;20053;-83
2022/04/13 03:10:27;;;;;;;19.20;7.35;;;;;;;11.36;62.17;98834.59;5199357;22;20528;-70
2022/04/13 03:13:17;;;;;;;14.02;7.35;;;;;;;11.40;62.78;98831.47;5161983;28;20511;-70
2022/04/13 03:16:07;;;;;;;17.55;7.75;;;;;;;11.37;62.75;98831.75;5148677;28;20145;-71
2022/04/13 03:18:58;;;;;;;18.65;7.32;;;;;;;11.33;62.83;98819.78;5159260;28;20081;-71
2022/04/13 03:21:51;;;;;;;20.40;8.60;;;;;;;11.27;63.30;98831.84;5149086;28;20050;-71
2022/04/13 03:24:41;;;;;;;14.83;8.10;;;;;;;11.33;63.11;98833.06;5164449;28;20060;-71
2022/04/13 03:27:31;;;;;;;14.77;6.80;;;;;;;11.55;63.21;98845.00;5163642;28;20531;-71
2022/04/13 03:30:22;;;;;;;15.68;7.32;;;;;;;11.63;63.28;98850.41;5155419;28;20116;-71
2022/04/13 03:33:13;;;;;;;12.75;7.22;;;;;;;11.10;64.48;98840.63;5160461;28;20053;-70
2022/04/13 03:36:03;;;;;;;11.88;6.90;;;;;;;11.22;64.01;98834.09;5141937;28;20069;-70
2022/04/13 03:38:53;;;;;;;9.25;6.68;;;;;;;11.07;64.34;98832.97;5163591;28;20046;-70
2022/04/13 03:41:44;;;;;;;12.52;6.18;;;;;;;11.04;62.68;98841.22;5162042;28;20066;-70
2022/04/13 03:44:34;;;;;;;10.63;6.05;;;;;;;11.00;64.04;98838.06;5163355;28;20120;-71
2022/04/13 03:47:24;;;;;;;11.02;6.07;;;;;;;10.98;63.80;98828.56;5156878;28;20109;-71
2022/04/13 03:50:14;;;;;;;12.07;7.25;;;;;;;10.90;63.86;98821.38;5162059;28;20144;-70
2022/04/13 03:53:05;;;;;;;14.48;6.25;;;;;;;11.01;64.00;98826.44;5144357;28;20061;-71
2022/04/13 03:55:55;;;;;;;11.13;6.60;;;;;;;10.75;63.41;98830.81;5153485;28;20081;-71
2022/04/13 03:58:45;;;;;;;14.93;6.40;;;;;;;10.78;63.17;98847.25;5146248;28;20158;-71
2022/04/13 04:01:35;;;;;;;10.50;6.43;;;;;;;10.79;63.90;98853.38;5157661;28;20065;-71
2022/04/13 04:04:25;;;;;;;9.60;6.85;;;;;;;10.89;64.68;98850.69;5158799;28;20104;-71
2022/04/13 04:07:16;;;;;;;11.05;6.60;;;;;;;11.07;64.37;98854.19;5157604;28;20058;-71
2022/04/13 04:10:08;;;;;;;19.75;6.68;;;;;;;10.87;65.03;98845.53;5160626;28;20054;-71
2022/04/13 04:12:58;;;;;;;11.32;6.15;;;;;;;10.68;64.37;98854.44;5156527;28;20054;-71
2022/04/13 04:15:49;;;;;;;14.07;7.00;;;;;;;10.49;64.28;98839.44;5161353;28;20052;-71
2022/04/13 04:18:39;;;;;;;9.60;6.18;;;;;;;10.70;64.95;98854.31;5145473;28;20057;-71
2022/04/13 04:21:29;;;;;;;16.35;6.68;;;;;;;10.68;65.07;98859.72;5162212;28;20057;-71
2022/04/13 04:24:19;;;;;;;14.25;6.60;;;;;;;10.44;65.45;98862.09;5156056;28;20096;-71
2022/04/13 04:27:10;;;;;;;17.23;6.47;;;;;;;10.50;65.06;98872.94;5158512;28;20514;-71
2022/04/13 04:30:00;;;;;;;14.88;6.32;;;;;;;10.38;63.97;98870.63;5147651;28;20046;-71
2022/04/13 04:32:50;;;;;;;10.50;6.13;;;;;;;10.27;64.96;98859.22;5146835;28;20117;-71
2022/04/13 04:35:40;;;;;;;11.63;6.15;;;;;;;10.41;65.27;98859.75;5161831;28;20047;-71
2022/04/13 04:38:32;;;;;;;14.20;6.80;;;;;;;10.30;64.88;98871.38;5160767;28;20057;-71
2022/04/13 04:41:22;;;;;;;12.85;6.85;;;;;;;10.44;65.26;98870.88;5146873;28;20058;-71
2022/04/13 04:44:13;;;;;;;13.20;6.60;;;;;;;10.17;64.96;98837.22;5159098;28;20051;-71
2022/04/13 04:47:03;;;;;;;11.25;7.18;;;;;;;10.32;64.97;98862.25;5159380;28;20053;-72
2022/04/13 04:49:53;;;;;;;11.38;7.00;;;;;;;10.27;65.21;98867.19;5145430;28;20061;-71
2022/04/13 04:52:46;;;;;;;16.33;7.50;;;;;;;10.30;65.25;98872.19;5146943;28;20057;-71
2022/04/13 04:55:37;;;;;;;11.18;6.88;;;;;;;10.20;64.75;98866.06;5140956;28;20049;-71
2022/04/13 04:58:27;;;;;;;14.63;6.65;;;;;;;10.14;65.56;98856.03;5161759;28;20061;-71
2022/04/13 05:01:18;;;;;;;19.33;7.03;;;;;;;10.24;65.02;98871.91;5158700;28;20054;-71
2022/04/13 05:04:08;;;;;;;12.07;7.47;;;;;;;10.19;66.28;98871.50;5160242;28;20046;-71
2022/04/13 05:06:58;;;;;;;11.85;6.85;;;;;;;10.26;64.54;98865.50;5160732;28;20046;-71
2022/04/13 05:09:49;;;;;;;13.00;6.43;;;;;;;10.29;65.21;98865.19;5129169;28;20512;-71
2022/04/13 05:12:44;;;;;;;10.57;6.55;;;;;;;10.30;64.96;98858.94;5160661;28;20077;-71
2022/04/13 05:15:34;;;;;;;11.18;6.28;;;;;;;10.32;67.21;98885.28;5155147;28;20061;-70
2022/04/13 05:18:24;;;;;;;12.23;7.38;;;;;;;10.42;65.55;98875.47;5146758;28;20125;-71
2022/04/13 05:21:15;;;;;;;13.93;7.60;;;;;;;10.49;66.75;98878.38;5157087;28;20559;-70
2022/04/13 05:24:05;;;;;;;13.50;7.03;;;;;;;10.70;65.91;98886.13;5144284;28;20137;-71
2022/04/13 05:26:55;;;;;;;14.77;7.53;;;;;;;10.62;64.99;98883.34;5151044;28;20119;-71
2022/04/13 05:29:46;;;;;;;18.60;8.43;;;;;;;10.71;65.23;98891.25;5148953;28;20582;-71
2022/04/13 05:32:47;;;;;;;16.52;7.65;;;;;;;10.82;65.52;98893.72;5147002;28;20101;-72
2022/04/13 05:35:37;;;;;;;12.63;6.60;;;;;;;10.76;64.65;98896.13;5162198;28;20485;-71
2022/04/13 05:38:27;;;;;;;12.70;7.20;;;;;;;10.86;65.56;98896.94;5161011;28;20046;-71
2022/04/13 05:41:18;;;;;;;17.52;7.47;;;;;;;11.01;65.22;98897.25;5165301;28;20463;-71
2022/04/13 05:44:08;;;;;;;19.52;7.65;;;;;;;11.11;64.72;98900.69;5159774;28;20062;-70
2022/04/13 05:46:58;;;;;;;15.82;7.97;;;;;;;11.13;64.88;98906.69;5164609;28;20046;-71
2022/04/13 05:49:48;;;;;;;15.02;7.40;;;;;;;11.20;63.92;98902.44;5164363;28;20464;-71
2022/04/13 05:52:39;;;;;;;23.70;7.53;;;;;;;11.44;64.36;98912.47;5150062;28;20189;-71
2022/04/13 05:55:29;;;;;;;20.52;7.93;;;;;;;11.47;64.69;98909.50;5164242;28;20771;-71
2022/04/13 05:58:20;;;;;;;24.88;8.32;;;;;;;11.60;64.74;98900.31;5161587;28;20076;-71
2022/04/13 06:01:10;;;;;;;25.38;7.50;;;;;;;11.68;64.15;98898.56;5161872;28;20551;-72
2022/04/13 06:04:00;;;;;;;24.75;7.97;;;;;;;12.01;63.91;98920.09;5160083;28;20042;-73
2022/04/13 06:06:51;;;;;;;23.58;8.18;;;;;;;11.98;63.10;98912.44;5163006;28;20050;-73
2022/04/13 06:09:41;;;;;;;17.52;7.88;;;;;;;12.21;63.17;98920.75;5139823;28;20061;-74
2022/04/13 06:12:32;;;;;;;14.63;7.40;;;;;;;12.37;62.82;98926.16;5148584;28;20125;-72
2022/04/13 06:15:23;;;;;;;31.38;7.88;;;;;;;12.50;62.25;98932.91;5164712;28;20089;-73
2022/04/13 06:18:13;;;;;;;24.98;7.63;;;;;;;12.66;62.12;98939.13;5160471;28;20054;-72
2022/04/13 06:21:03;;;;;;;13.48;5.32;;;;;;;12.91;59.54;98937.44;5144510;28;20058;-73
2022/04/13 06:23:53;;;;;;;12.70;5.30;;;;;;;13.19;58.33;98936.38;5155497;28;20065;-72
2022/04/13 06:26:43;;;;;;;8.88;5.38;;;;;;;13.25;57.73;98933.09;5161713;28;20054;-71
2022/04/13 06:29:33;;;;;;;8.80;5.28;;;;;;;13.42;57.95;98936.63;5162083;28;20069;-71
2022/04/13 06:32:34;;;;;;;12.15;4.85;;;;;;;13.65;56.47;98950.16;5148437;28;20139;-72
2022/04/13 06:35:25;;;;;;;10.38;5.00;;;;;;;13.75;56.66;98934.84;5159948;28;20058;-73
2022/04/13 06:38:15;;;;;;;11.45;5.18;;;;;;;13.74;56.56;98930.50;5164719;28;20420;-72
2022/04/13 06:41:09;;;;;;;11.13;5.40;;;;;;;14.07;56.63;98942.84;5164303;28;20077;-70
2022/04/13 06:43:59;;;;;;;10.85;4.80;;;;;;;14.10;55.37;98939.00;5162738;28;20047;-70
2022/04/13 06:46:50;;;;;;;11.05;5.32;;;;;;;14.27;55.28;98961.13;5162793;28;20060;-71
2022/04/13 06:49:40;;;;;;;11.00;5.20;;;;;;;14.59;54.94;98954.13;5162659;28;20053;-73
2022/04/13 06:52:34;;;;;;;9.70;5.18;;;;;;;14.78;54.34;98954.56;5159568;28;20081;-73
2022/04/13 06:55:24;;;;;;;9.57;5.55;;;;;;;14.98;54.52;98962.19;5163597;28;20110;-72
2022/04/13 06:58:15;;;;;;;13.57;5.68;;;;;;;15.08;54.41;98959.31;5162032;28;20089;-73
2022/04/13 07:01:05;;;;;;;14.93;5.70;;;;;;;15.20;52.72;98960.59;5162243;28;20057;-72
2022/04/13 07:03:56;;;;;;;7.70;5.07;;;;;;;15.06;53.25;98966.66;5158651;28;20042;-72
2022/04/13 07:06:46;;;;;;;12.32;5.57;;;;;;;15.13;53.31;98963.13;5163373;28;20119;-70
2022/04/13 07:09:36;;;;;;;8.98;5.70;;;;;;;15.57;51.84;98954.53;5162028;28;20053;-70
2022/04/13 07:12:33;;;;;;;11.07;5.40;;;;;;;15.86;53.33;98966.41;5143571;28;20072;-70
2022/04/13 07:15:24;;;;;;;10.07;5.15;;;;;;;16.29;50.41;98961.38;5159705;28;20518;-71
2022/04/13 07:18:15;;;;;;;14.45;5.47;;;;;;;16.57;51.77;98961.63;5157583;28;20057;-70
2022/04/13 07:21:05;;;;;;;16.77;5.80;;;;;;;17.06;50.43;98929.78;5158552;28;20081;-70
2022/04/13 07:23:57;;;;;;;15.05;5.75;;;;;;;17.16;50.60;98929.50;5160654;28;20069;-72
2022/04/13 07:26:48;;;;;;;16.80;6.05;;;;;;;17.74;49.17;98970.53;5161116;28;20046;-71
2022/04/13 07:29:38;;;;;;;12.02;6.05;;;;;;;18.09;48.58;98962.66;5141706;28;20471;-72
2022/04/13 07:32:28;;;;;;;14.10;6.35;;;;;;;18.47;46.79;98963.16;5159806;28;20548;-71
2022/04/13 07:35:18;;;;;;;15.00;6.05;;;;;;;18.31;49.28;98966.16;5160735;28;20086;-71
2022/04/13 07:38:08;;;;;;;12.68;6.28;;;;;;;18.95;47.66;98973.22;5143462;28;20104;-72
2022/04/13 07:41:01;;;;;;;15.90;6.32;;;;;;;19.53;47.59;98980.91;5143419;28;20166;-73
2022/04/13 07:43:51;;;;;;;12.15;6.60;;;;;;;19.95;45.61;98966.38;5144334;28;20150;-72
2022/04/13 07:46:41;;;;;;;16.50;6.47;;;;;;;20.36;44.19;98962.66;5132081;28;20113;-72
2022/04/13 07:49:31;;;;;;;13.18;6.78;;;;;;;20.63;44.13;98972.41;5148038;28;20053;-72
2022/04/13 07:52:21;;;;;;;19.73;6.22;;;;;;;20.99;44.62;98970.25;5157953;28;20497;-72
2022/04/13 07:55:11;;;;;;;17.33;6.68;;;;;;;21.38;43.36;98968.50;5157517;28;20574;-69
2022/04/13 07:58:01;;;;;;;13.80;6.88;;;;;;;21.73;43.25;98977.88;5153830;28;20074;-72
2022/04/13 08:00:51;;;;;;;13.02;7.20;;;;;;;21.71;42.20;98984.53;5156957;28;20121;-70
2022/04/13 08:03:42;;;;;;;18.52;7.43;;;;;;;21.93;41.56;98975.06;5157221;28;20042;-72
2022/04/13 08:06:32;;;;;;;13.63;7.18;;;;;;;22.28;40.92;98980.00;5150598;28;20085;-71
2022/04/13 08:09:23;;;;;;;15.80;7.20;;;;;;;22.00;41.98;98983.94;5156734;28;20085;-72
2022/04/13 08:12:15;;;;;;;20.52;7.03;;;;;;;22.70;40.50;98983.81;5159234;28;20141;-72
2022/04/13 08:15:07;;;;;;;17.20;7.55;;;;;;;22.88;39.77;98993.84;5137981;28;20185;-71
2022/04/13 08:17:57;;;;;;;18.88;7.35;;;;;;;21.90;42.75;98975.47;5159287;28;20065;-72
2022/04/13 08:20:49;;;;;;;18.80;7.22;;;;;;;21.68;41.51;98991.16;5144269;28;20062;-72
2022/04/13 08:23:39;;;;;;;17.27;6.80;;;;;;;22.19;42.86;98984.88;5127660;28;20061;-72
2022/04/13 08:26:30;;;;;;;14.40;6.47;;;;;;;21.83;42.12;98990.91;5147784;28;20421;-72
2022/04/13 08:29:20;;;;;;;11.77;6.63;;;;;;;22.68;43.03;98995.88;5141581;28;20171;-73
2022/04/13 08:32:09;;;;;;;13.82;6.47;;;;;;;23.18;41.38;98993.97;5150086;28;20054;-71
2022/04/13 08:35:04;;;;;;;13.45;7.45;;;;;;;23.63;40.08;98999.00;5158119;28;20054;-72
2022/04/13 08:37:54;;;;;;;14.55;7.60;;;;;;;22.46;39.72;99009.81;5158933;28;20671;-71
2022/04/13 08:40:58;;;;;;;14.82;7.88;;;;;;;23.08;40.11;98990.94;5146149;28;20101;-71
2022/04/13 08:43:54;;;;;;;15.95;8.10;;;;;;;23.27;40.17;99008.00;5155528;28;20424;-71
2022/04/13 08:46:45;;;;;;;16.83;6.88;;;;;;;23.47;40.57;98998.81;5154138;28;20050;-70
2022/04/13 08:49:39;;;;;;;16.30;7.32;;;;;;;23.93;39.50;98995.50;5152563;28;20057;-71
2022/04/13 08:52:31;;;;;;;17.95;7.85;;;;;;;24.03;39.13;98995.78;5142262;28;20132;-71
2022/04/13 08:55:22;;;;;;;13.60;7.75;;;;;;;24.23;38.44;98986.53;5154387;28;20062;-72
2022/04/13 08:58:40;;;;;;;16.23;7.40;;;;;;;24.72;37.13;99001.56;5155424;28;20101;-72
2022/04/13 09:01:38;;;;;;;15.90;7.53;;;;;;;23.53;39.74;98976.25;5186303;23;20050;-81
2022/04/13 09:04:31;;;;;;;13.50;6.43;;;;;;;23.60;40.14;99013.00;5188696;28;20093;-79
2022/04/13 09:07:21;;;;;;;15.45;7.22;;;;;;;23.63;38.30;98992.78;5180931;28;20630;-80
2022/04/13 09:10:22;;;;;;;19.42;7.78;;;;;;;23.86;39.01;98995.59;5192760;28;20419;-82
2022/04/13 09:13:13;;;;;;;8.18;5.38;;;;;;;24.11;38.03;98983.81;5189229;28;20049;-81
2022/04/13 09:16:04;;;;;;;16.27;5.10;;;;;;;23.87;35.12;98997.28;5188606;28;20056;-80
2022/04/13 09:18:55;;;;;;;12.77;4.80;;;;;;;24.05;35.43;98998.28;5188180;28;20061;-79
2022/04/13 09:21:47;;;;;;;13.88;4.63;;;;;;;23.24;38.06;98994.91;5188390;28;20123;-80
2022/04/13 09:24:38;;;;;;;10.95;4.40;;;;;;;24.10;36.59;98980.25;5187731;28;20075;-80
2022/04/13 09:27:30;;;;;;;7.05;3.35;;;;;;;23.87;35.44;98993.72;5167978;28;20076;-80
2022/04/13 09:30:19;;;;;;;8.23;4.13;;;;;;;24.28;34.84;98990.19;5185231;28;20871;-80
2022/04/13 09:33:09;;;;;;;11.10;3.85;;;;;;;24.17;33.89;98980.16;5188285;28;20156;-80
2022/04/13 09:36:00;;;;;;;11.90;4.10;;;;;;;24.32;34.22;98977.00;5174358;28;20052;-80
2022/04/13 09:38:52;;;;;;;10.63;3.83;;;;;;;23.60;38.41;98971.56;5189605;28;20131;-80
2022/04/13 09:41:42;;;;;;;8.90;3.80;;;;;;;24.13;34.60;98984.38;5189459;28;20057;-80
2022/04/13 09:44:33;;;;;;;8.73;3.80;;;;;;;24.20;35.72;98984.28;5203909;28;20547;-80
2022/04/13 09:47:30;;;;;;;14.45;4.10;;;;;;;24.17;36.03;99003.69;5204504;28;20053;-80
2022/04/13 09:50:26;;;;;;;11.90;3.90;;;;;;;24.65;34.30;98981.91;5178871;28;20080;-81
2022/04/13 09:53:19;;;;;;;13.20;3.92;;;;;;;25.09;32.82;98982.31;5208354;28;20103;-80
2022/04/13 09:56:16;;;;;;;11.60;3.40;;;;;;;25.24;35.27;98988.13;5189181;28;20453;-80
2022/04/13 09:59:07;;;;;;;10.32;3.22;;;;;;;25.60;35.25;98991.56;5189415;28;20677;-80
2022/04/13 10:01:59;;;;;;;7.00;3.05;;;;;;;25.58;33.06;98988.25;5189369;28;20079;-80
2022/04/13 10:04:49;;;;;;;10.95;3.47;;;;;;;24.89;35.14;98969.16;5205441;28;20049;-81
2022/04/13 10:07:39;;;;;;;9.02;3.35;;;;;;;24.71;34.97;98972.00;5190331;28;20507;-81
2022/04/13 10:10:29;;;;;;;9.00;3.33;;;;;;;25.19;34.29;98957.34;5187565;28;20780;-81
2022/04/13 10:13:38;;;;;;;10.95;2.55;;;;;;;25.33;31.15;98968.75;5172262;28;20123;-80
2022/04/13 10:16:33;;;;;;;6.80;2.55;;;;;;;24.64;32.05;98960.47;5200991;28;20072;-80
2022/04/13 10:19:24;;;;;;;7.90;2.75;;;;;;;24.61;33.41;98961.75;5193117;28;20057;-81
2022/04/13 10:22:14;;;;;;;8.30;2.72;;;;;;;24.97;32.17;98962.56;5207390;28;20049;-80
2022/04/13 10:25:18;;;;;;;5.40;2.03;;;;;;;24.52;31.62;98955.03;5191638;28;20422;-80
2022/04/13 10:28:12;;;;;;;3.33;1.40;;;;;;;24.67;30.01;98954.53;5207255;28;20522;-80
2022/04/13 10:31:07;;;;;;;8.10;1.98;;;;;;;24.08;29.55;98951.75;5192350;28;20422;-80
2022/04/13 10:33:58;;;;;;;5.68;2.17;;;;;;;24.29;31.36;98964.75;5200189;28;20105;-79
2022/04/13 10:36:48;;;;;;;9.40;1.83;;;;;;;25.36;32.01;98960.94;5191693;28;20124;-80
2022/04/13 10:39:39;;;;;;;11.20;2.30;;;;;;;25.47;31.23;98962.00;5192426;28;20064;-80
2022/04/13 10:42:31;;;;;;;11.20;1.88;;;;;;;25.51;30.59;98965.88;5189028;28;20060;-80
2022/04/13 10:45:22;;;;;;;8.20;2.00;;;;;;;25.42;30.42;98970.00;5189636;28;20056;-80
2022/04/13 10:48:22;;;;;;;14.35;1.63;;;;;;;24.67;29.08;98968.94;5169450;28;20057;-80
2022/04/13 10:51:13;;;;;;;9.23;1.92;;;;;;;24.83;30.50;98953.81;5182002;28;20137;-80
2022/04/13 10:54:06;;;;;;;4.90;1.33;;;;;;;24.46;29.41;98945.94;5189880;28;20065;-80
2022/04/13 10:56:58;;;;;;;7.25;1.60;;;;;;;24.93;30.58;98953.22;5189296;28;20049;-80
2022/04/13 10:59:53;;;;;;;7.93;1.70;;;;;;;25.20;28.40;98970.69;5169032;28;20061;-80
2022/04/13 11:02:52;;;;;;;7.95;1.60;;;;;;;24.82;26.87;98957.59;5169131;28;20097;-80
2022/04/13 11:05:43;;;;;;;5.80;1.50;;;;;;;25.12;30.37;98962.91;5181354;28;20569;-80
2022/04/13 11:08:53;;;;;;;6.05;1.38;;;;;;;25.54;27.87;98949.91;5190848;28;20443;-80
2022/04/13 11:11:45;;;;;;;6.35;1.35;;;;;;;23.77;27.86;98950.13;5205390;28;20108;-80
2022/04/13 11:14:53;;;;;;;8.73;1.33;;;;;;;24.13;28.66;98957.28;5189852;28;20128;-80
2022/04/13 11:17:43;;;;;;;10.00;1.67;;;;;;;25.19;29.01;98958.16;5190623;28;20175;-80
2022/04/13 11:20:34;;;;;;;5.22;1.58;;;;;;;24.27;29.43;98961.47;5205333;28;20049;-80
2022/04/13 11:23:54;;;;;;;5.95;1.52;;;;;;;25.46;29.24;98953.03;5189581;28;20057;-80
2022/04/13 11:26:44;;;;;;;8.48;1.90;;;;;;;24.57;30.83;98955.16;5189971;28;20119;-80
2022/04/13 11:29:35;;;;;;;6.40;1.70;;;;;;;25.68;29.09;98955.88;5176508;28;20103;-81
2022/04/13 11:32:36;;;;;;;8.95;2.15;;;;;;;24.65;32.81;98957.50;5189032;28;20139;-81
2022/04/13 11:35:26;;;;;;;7.05;1.90;;;;;;;24.79;31.70;98952.66;5188633;28;20175;-80
2022/04/13 11:38:17;;;;;;;5.20;1.85;;;;;;;24.30;32.45;98936.59;5189719;28;20049;-80
2022/04/13 11:41:07;;;;;;;8.82;1.70;;;;;;;24.82;32.63;98931.31;5206073;28;20053;-81
2022/04/13 11:44:17;;;;;;;7.30;1.90;;;;;;;24.75;30.17;98949.59;5187831;28;20095;-80
2022/04/13 11:47:19;;;;;;;7.70;1.83;;;;;;;24.44;33.37;98933.72;5190601;28;20049;-80
2022/04/13 11:50:12;;;;;;;10.90;2.10;;;;;;;25.14;31.49;98936.34;5206085;28;20183;-81
2022/04/13 11:53:11;;;;;;;9.93;2.20;;;;;;;24.50;31.30;98928.16;5191162;28;20072;-79
2022/04/13 11:56:04;;;;;;;7.30;1.80;;;;;;;24.59;32.40;98934.03;5182322;28;20129;-80
2022/04/13 11:58:56;;;;;;;5.57;1.85;;;;;;;24.37;32.85;98926.47;5207687;28;20064;-80
2022/04/13 12:01:57;;;;;;;7.60;1.95;;;;;;;25.19;31.07;98939.16;5192357;28;20071;-80
2022/04/13 12:04:47;;;;;;;10.75;2.10;;;;;;;25.14;30.96;98919.25;5191150;28;20123;-80
2022/04/13 12:07:40;;;;;;;7.95;2.17;;;;;;;24.70;29.83;98926.94;5188320;28;20647;-80
2022/04/13 12:10:36;;;;;;;17.65;1.80;;;;;;;24.96;28.29;98931.03;5190903;28;20060;-80
2022/04/13 12:13:29;;;;;;;10.60;1.80;;;;;;;25.68;29.92;98939.56;5191108;28;20054;-81
2022/04/13 12:16:24;;;;;;;8.85;1.98;;;;;;;25.85;27.78;98925.22;5205659;28;20786;-80
2022/04/13 12:19:14;;;;;;;9.82;1.60;;;;;;;25.18;31.68;98918.53;5191553;28;20637;-81
2022/04/13 12:22:18;;;;;;;9.13;1.80;;;;;;;25.16;30.08;98920.66;5189994;28;20099;-80
2022/04/13 12:25:10;;;;;;;7.53;1.48;;;;;;;25.37;29.95;98919.19;5190325;28;20053;-80
2022/04/13 12:28:04;;;;;;;7.78;1.90;;;;;;;25.32;30.47;98913.63;5190585;28;20046;-80
2022/04/13 12:31:08;;;;;;;9.13;1.60;;;;;;;25.12;29.10;98905.91;5191727;28;20056;-80
2022/04/13 12:34:01;;;;;;;6.00;1.70;;;;;;;25.46;29.67;98903.31;5184331;28;20057;-80
2022/04/13 12:36:54;;;;;;;9.02;2.05;;;;;;;25.78;29.91;98904.44;5192846;28;20049;-79
2022/04/13 12:39:44;;;;;;;10.25;1.95;;;;;;;25.90;30.92;98895.47;5191285;28;20049;-80
2022/04/13 12:42:34;;;;;;;11.77;1.90;;;;;;;25.82;29.79;98904.81;5188261;28;20053;-81
2022/04/13 12:45:29;;;;;;;10.38;2.00;;;;;;;25.73;31.42;98904.38;5188808;28;20064;-81
2022/04/13 12:48:28;;;;;;;17.38;3.33;;;;;;;25.53;29.66;98888.53;5172549;28;20073;-80
2022/04/13 12:51:19;;;;;;;11.77;1.92;;;;;;;25.24;31.26;98895.03;5198273;28;20119;-80
2022/04/13 12:54:17;;;;;;;8.02;2.13;;;;;;;24.94;32.04;98884.38;5189551;28;20581;-80
2022/04/13 12:57:08;;;;;;;12.45;2.17;;;;;;;25.06;30.94;98898.72;5168837;28;20053;-81
2022/04/13 13:00:00;;;;;;;8.82;2.10;;;;;;;24.01;32.21;98886.03;5182595;28;20113;-80
2022/04/13 13:02:50;;;;;;;7.28;2.00;;;;;;;24.61;32.57;98891.25;5189062;28;20084;-80
2022/04/13 13:05:40;;;;;;;9.73;1.52;;;;;;;24.65;32.29;98881.59;5203891;28;20131;-80
2022/04/13 13:08:31;;;;;;;10.77;2.05;;;;;;;24.41;32.07;98888.91;5189847;28;20048;-80
2022/04/13 13:11:28;;;;;;;6.95;1.90;;;;;;;24.93;31.17;98896.25;5188434;28;20057;-80
2022/04/13 13:14:18;;;;;;;14.55;2.08;;;;;;;24.19;33.50;98894.06;5175517;28;20693;-80
2022/04/13 13:17:24;;;;;;;10.13;2.20;;;;;;;24.24;33.09;98891.47;5179753;28;20576;-80
2022/04/13 13:20:17;;;;;;;9.48;2.13;;;;;;;24.89;31.31;98878.81;5173488;28;20060;-80
2022/04/13 13:23:08;;;;;;;8.52;1.88;;;;;;;24.76;32.53;98886.16;5187585;28;20060;-79
2022/04/13 13:25:58;;;;;;;11.90;2.40;;;;;;;23.37;33.45;98859.47;5187303;28;20057;-80